createdAt,value
2022-10-09T00:01:55.101Z,63.8252
2022-10-09T00:03:54.960Z,64.10156
2022-10-09T00:05:54.932Z,64.70117
2022-10-09T00:07:55.015Z,64.3457
2022-10-09T00:09:54.935Z,64.26563
2022-10-09T00:11:54.968Z,64.30371
2022-10-09T00:14:41.212Z,64.27734
2022-10-09T00:16:41.363Z,64.22461
2022-10-09T00:18:41.227Z,64.32129
2022-10-09T00:20:41.195Z,64.00586
2022-10-09T00:22:41.169Z,64.18066
2022-10-09T00:24:41.214Z,63.96289
2022-10-09T00:26:41.191Z,64.16699
2022-10-09T00:30:28.176Z,64.36914
2022-10-09T00:32:28.039Z,64.08691
2022-10-09T00:34:28.048Z,65.38086
2022-10-09T00:36:28.011Z,64.96387
2022-10-09T00:38:28.016Z,64.64648
2022-10-09T00:40:28.074Z,64.10059
2022-10-09T00:42:28.012Z,64.54199
2022-10-09T00:45:10.282Z,64.58691
2022-10-09T00:47:10.355Z,64.74902
2022-10-09T00:49:10.312Z,64.64355
2022-10-09T00:51:10.298Z,64.33691
2022-10-09T00:53:10.289Z,64.83398
2022-10-09T00:55:10.327Z,64.55176
2022-10-09T00:57:10.292Z,65.16406
2022-10-09T01:00:44.535Z,65.50684
2022-10-09T01:02:44.662Z,64.94727
2022-10-09T01:04:44.557Z,64.79688
2022-10-09T01:06:44.576Z,65.16016
2022-10-09T01:08:44.532Z,65.19434
2022-10-09T01:10:44.567Z,65.16797
2022-10-09T01:12:44.538Z,65.69434
2022-10-09T01:15:43.115Z,65.41016
2022-10-09T01:17:43.056Z,65.13281
2022-10-09T01:19:42.983Z,65.13574
2022-10-09T01:21:42.984Z,65.55469
2022-10-09T01:23:42.925Z,65.34766
2022-10-09T01:25:42.982Z,65.33105
2022-10-09T01:27:42.907Z,65.46484
2022-10-09T01:30:33.168Z,65.85742
2022-10-09T01:32:33.084Z,65.64746
2022-10-09T01:34:33.092Z,65.55273
2022-10-09T01:36:33.097Z,65.3877
2022-10-09T01:38:33.151Z,65.27637
2022-10-09T01:40:33.084Z,65.6875
2022-10-09T01:42:33.082Z,65.63965
2022-10-09T01:46:07.714Z,65.5498
2022-10-09T01:48:07.600Z,65.54297
2022-10-09T01:50:07.588Z,65.91504
2022-10-09T01:52:07.596Z,65.74414
2022-10-09T01:54:07.608Z,65.57715
2022-10-09T01:56:07.557Z,65.68945
2022-10-09T01:58:07.582Z,65.85742
2022-10-09T02:00:40.188Z,65.58789
2022-10-09T02:02:40.418Z,65.53418
2022-10-09T02:04:40.220Z,65.75488
2022-10-09T02:06:40.222Z,65.80859
2022-10-09T02:08:40.237Z,65.81445
2022-10-09T02:10:40.207Z,66.2959
2022-10-09T02:12:40.200Z,65.66895
2022-10-09T02:14:40.182Z,66.26855
2022-10-09T02:16:37.471Z,66.52441
2022-10-09T02:18:31.805Z,66.74316
2022-10-09T02:20:31.796Z,66.85938
2022-10-09T02:22:31.772Z,66.59766
2022-10-09T02:24:31.802Z,66.0918
2022-10-09T02:26:31.797Z,66.0498
2022-10-09T02:28:31.863Z,66.32129
2022-10-09T02:31:29.555Z,67.18066
2022-10-09T02:33:29.267Z,66.51465
2022-10-09T02:35:29.366Z,66.87891
2022-10-09T02:37:29.311Z,67.02148
2022-10-09T02:39:29.297Z,66.9834
2022-10-09T02:41:29.247Z,67.42969
2022-10-09T02:43:29.295Z,67.35254
2022-10-09T02:46:11.488Z,66.88965
2022-10-09T02:48:11.302Z,66.5332
2022-10-09T02:50:11.294Z,66.13086
2022-10-09T02:52:11.383Z,66.81836
2022-10-09T02:54:11.335Z,66.9248
2022-10-09T02:56:11.285Z,66.98438
2022-10-09T02:58:11.294Z,66.69727
2022-10-09T03:00:11.308Z,66.37207
2022-10-09T03:01:40.102Z,66.53809
2022-10-09T03:03:39.756Z,66.84473
2022-10-09T03:05:39.697Z,66.81055
2022-10-09T03:07:39.766Z,66.89551
2022-10-09T03:09:39.730Z,66.98145
2022-10-09T03:11:39.729Z,66.69727
2022-10-09T03:13:39.767Z,66.83008
2022-10-09T03:17:21.450Z,67.44824
2022-10-09T03:19:21.406Z,67.2002
2022-10-09T03:21:21.402Z,66.96191
2022-10-09T03:23:21.424Z,66.93848
2022-10-09T03:25:21.408Z,67.25977
2022-10-09T03:27:21.390Z,67.47949
2022-10-09T03:29:21.405Z,66.74805
2022-10-09T03:31:53.565Z,66.94141
2022-10-09T03:33:50.017Z,66.4082
2022-10-09T03:35:50.045Z,66.98145
2022-10-09T03:37:49.983Z,66.83105
2022-10-09T03:39:50.222Z,66.87793
2022-10-09T03:41:49.979Z,66.90234
2022-10-09T03:43:50.009Z,67.01855
2022-10-09T03:47:38.080Z,67.12598
2022-10-09T03:49:38.106Z,66.97754
2022-10-09T03:51:38.104Z,66.97754
2022-10-09T03:53:38.033Z,67.25488
2022-10-09T03:55:38.072Z,67.22363
2022-10-09T03:57:38.077Z,66.90137
2022-10-09T03:59:38.087Z,66.57324
2022-10-09T04:02:19.335Z,66.91602
2022-10-09T04:04:19.300Z,67.06934
2022-10-09T04:06:19.306Z,66.53125
2022-10-09T04:08:19.207Z,67.10645
2022-10-09T04:10:19.282Z,67.00488
2022-10-09T04:12:19.284Z,66.96777
2022-10-09T04:14:19.238Z,67.22363
2022-10-09T04:18:00.812Z,67.38672
2022-10-09T04:20:00.837Z,67.4668
2022-10-09T04:22:00.837Z,67.5
2022-10-09T04:24:00.841Z,66.96387
2022-10-09T04:26:00.770Z,67.40723
2022-10-09T04:28:00.821Z,67.50586
2022-10-09T04:30:00.820Z,67.59375
2022-10-09T04:32:27.743Z,67.66504
2022-10-09T04:34:27.679Z,67.69141
2022-10-09T04:36:27.744Z,67.56934
2022-10-09T04:38:27.736Z,67.87109
2022-10-09T04:40:27.712Z,67.50195
2022-10-09T04:42:27.709Z,67.64746
2022-10-09T04:44:27.886Z,67.45508
2022-10-09T04:46:27.789Z,66.93262
2022-10-09T04:48:16.154Z,67.2998
2022-10-09T04:50:16.120Z,67.25977
2022-10-09T04:52:16.091Z,67.33398
2022-10-09T04:54:16.118Z,67.47656
2022-10-09T04:56:16.100Z,67.29199
2022-10-09T04:58:16.135Z,67.7207
2022-10-09T05:00:16.094Z,67.50684
2022-10-09T05:02:52.936Z,67.24512
2022-10-09T05:04:53.049Z,67.49609
2022-10-09T05:06:52.960Z,68.17871
2022-10-09T05:08:52.991Z,67.66406
2022-10-09T05:10:52.971Z,67.34277
2022-10-09T05:12:52.979Z,67.46484
2022-10-09T05:14:52.962Z,67.41309
2022-10-09T05:18:13.510Z,67.25391
2022-10-09T05:20:13.508Z,67.94824
2022-10-09T05:22:13.445Z,67.54883
2022-10-09T05:24:13.524Z,66.27832
2022-10-09T05:26:13.481Z,66.31055
2022-10-09T05:28:13.621Z,65.14844
2022-10-09T05:30:13.493Z,61.55859
2022-10-09T05:33:02.591Z,63.23926
2022-10-09T05:35:02.570Z,64.84766
2022-10-09T05:37:02.556Z,66.25781
2022-10-09T05:39:02.631Z,66.46973
2022-10-09T05:41:02.539Z,66.3291
2022-10-09T05:43:02.632Z,66.68164
2022-10-09T05:45:02.586Z,66.38379
2022-10-09T05:47:02.521Z,66.19531
2022-10-09T05:48:43.092Z,66.05078
2022-10-09T05:50:43.143Z,65.94629
2022-10-09T05:52:43.046Z,65.70508
2022-10-09T05:54:43.138Z,65.83496
2022-10-09T05:56:43.050Z,66.00488
2022-10-09T05:58:43.086Z,66.01367
2022-10-09T06:00:43.059Z,65.71484
2022-10-09T06:04:06.443Z,66.38965
2022-10-09T06:06:06.512Z,65.99121
2022-10-09T06:08:06.417Z,65.29102
2022-10-09T06:10:06.458Z,65.24316
2022-10-09T06:12:06.469Z,65.41699
2022-10-09T06:14:06.435Z,65.24316
2022-10-09T06:16:06.402Z,66.05957
2022-10-09T06:19:18.350Z,66.19336
2022-10-09T06:21:18.345Z,65.72559
2022-10-09T06:23:18.313Z,65.87012
2022-10-09T06:25:18.351Z,64.87793
2022-10-09T06:27:18.294Z,65.03125
2022-10-09T06:29:18.324Z,65.3623
2022-10-09T06:31:18.468Z,65.88477
2022-10-09T06:34:27.849Z,67.05957
2022-10-09T06:36:27.805Z,66.58496
2022-10-09T06:38:27.727Z,66.84766
2022-10-09T06:40:28.268Z,68.39941
2022-10-09T06:42:27.720Z,68.45996
2022-10-09T06:44:27.795Z,67.16406
2022-10-09T06:46:27.838Z,67.23145
2022-10-09T06:49:30.342Z,67.39453
2022-10-09T06:51:30.272Z,67.57031
2022-10-09T06:53:30.283Z,68.33496
2022-10-09T06:55:30.283Z,66.7959
2022-10-09T06:57:30.366Z,66.91797
2022-10-09T06:59:30.301Z,65.63086
2022-10-09T07:01:30.450Z,66.87402
2022-10-09T07:04:15.655Z,66.78027
2022-10-09T07:06:15.699Z,66.90918
2022-10-09T07:08:15.727Z,67.77734
2022-10-09T07:10:15.693Z,67.15527
2022-10-09T07:12:15.748Z,65.53418
2022-10-09T07:14:15.651Z,64.77148
2022-10-09T07:16:15.788Z,66.0293
2022-10-09T07:19:17.566Z,65.07813
2022-10-09T07:21:17.322Z,65.9707
2022-10-09T07:23:17.395Z,65.71875
2022-10-09T07:25:17.342Z,64.05566
2022-10-09T07:27:17.335Z,65.54492
2022-10-09T07:29:17.363Z,64.58203
2022-10-09T07:31:18.740Z,65.0957
2022-10-09T07:33:17.602Z,64.62988
2022-10-09T07:34:23.264Z,63.73145
2022-10-09T07:36:23.186Z,62.79883
2022-10-09T07:38:23.217Z,61.85547
2022-10-09T07:40:23.203Z,61.4082
2022-10-09T07:42:23.193Z,61.40527
2022-10-09T07:44:23.208Z,61.40625
2022-10-09T07:46:23.333Z,61.38965
2022-10-09T07:48:23.214Z,61.9873
2022-10-09T07:49:30.749Z,61.97949
2022-10-09T07:51:30.764Z,61.17871
2022-10-09T07:53:36.188Z,60.62305
2022-10-09T07:55:30.722Z,59.26367
2022-10-09T07:57:30.735Z,59.95898
2022-10-09T07:59:30.755Z,58.15039
2022-10-09T08:01:31.112Z,57.59473
2022-10-09T08:03:30.746Z,55.96582
2022-10-09T08:05:06.785Z,57.11621
2022-10-09T08:07:06.752Z,56.15723
2022-10-09T08:09:06.799Z,57.50977
2022-10-09T08:11:06.787Z,57.87207
2022-10-09T08:13:06.746Z,56.43848
2022-10-09T08:15:06.810Z,56.1084
2022-10-09T08:17:06.799Z,56.41895
2022-10-09T08:20:35.529Z,55.93555
2022-10-09T08:22:35.478Z,55.93652
2022-10-09T08:24:35.469Z,55.80566
2022-10-09T08:26:35.531Z,55.12109
2022-10-09T08:28:35.650Z,54.90039
2022-10-09T08:30:35.486Z,55.41309
2022-10-09T08:32:35.488Z,54.98242
2022-10-09T08:35:36.467Z,54.89551
2022-10-09T08:37:36.404Z,55.68066
2022-10-09T08:39:36.380Z,54.9668
2022-10-09T08:41:36.389Z,54.40332
2022-10-09T08:43:36.414Z,53.70801
2022-10-09T08:45:36.487Z,51.9043
2022-10-09T08:47:36.701Z,51.48828
2022-10-09T08:50:18.341Z,52.14063
2022-10-09T08:52:18.413Z,51.58203
2022-10-09T08:54:18.364Z,50.14746
2022-10-09T08:56:18.340Z,50.10742
2022-10-09T08:58:18.353Z,50.18945
2022-10-09T09:00:18.357Z,49.38477
2022-10-09T09:02:18.456Z,49.49121
2022-10-09T09:05:52.761Z,49.8877
2022-10-09T09:07:52.681Z,50.37695
2022-10-09T09:09:52.751Z,51.00391
2022-10-09T09:11:53.765Z,50.36523
2022-10-09T09:13:52.727Z,50.17285
2022-10-09T09:15:52.835Z,49.76563
2022-10-09T09:17:52.712Z,48.16992
2022-10-09T09:21:13.997Z,47.9248
2022-10-09T09:23:14.035Z,48.30957
2022-10-09T09:25:14.086Z,47.51758
2022-10-09T09:27:14.037Z,47.13477
2022-10-09T09:29:13.963Z,47.0957
2022-10-09T09:31:14.111Z,46.56641
2022-10-09T09:33:14.011Z,46.13379
2022-10-09T09:36:29.755Z,45.27832
2022-10-09T09:38:29.742Z,46.67676
2022-10-09T09:40:41.411Z,45.42773
2022-10-09T09:42:29.756Z,45.98145
2022-10-09T09:44:29.757Z,46.19922
2022-10-09T09:46:29.829Z,44.93359
2022-10-09T09:48:29.732Z,44.91992
2022-10-09T09:51:29.092Z,45.19434
2022-10-09T09:53:17.500Z,43.8457
2022-10-09T09:55:17.416Z,44.36914
2022-10-09T09:57:22.268Z,44.64453
2022-10-09T09:59:17.431Z,44.70801
2022-10-09T10:01:17.502Z,45.74219
2022-10-09T10:03:17.483Z,44.43164
2022-10-09T10:06:18.084Z,44.23242
2022-10-09T10:08:18.055Z,43.53613
2022-10-09T10:10:25.497Z,42.93945
2022-10-09T10:12:18.055Z,42.84277
2022-10-09T10:14:18.146Z,40.7373
2022-10-09T10:16:18.129Z,41.39355
2022-10-09T10:18:18.038Z,41.01563
2022-10-09T10:21:04.322Z,42.2666
2022-10-09T10:23:04.367Z,41.58398
2022-10-09T10:25:04.322Z,41.09961
2022-10-09T10:27:04.304Z,40.23145
2022-10-09T10:29:04.321Z,40.0127
2022-10-09T10:31:04.404Z,40.3418
2022-10-09T10:33:04.288Z,40.50781
2022-10-09T10:35:04.366Z,39.75488
2022-10-09T10:36:29.636Z,40.80371
2022-10-09T10:38:29.718Z,40.73828
2022-10-09T10:40:29.638Z,40.15039
2022-10-09T10:42:29.655Z,40.87793
2022-10-09T10:44:29.719Z,40.08691
2022-10-09T10:46:29.742Z,39.53613
2022-10-09T10:48:29.677Z,39.57813
2022-10-09T10:52:07.323Z,37.71484
2022-10-09T10:54:08.358Z,38.22559
2022-10-09T10:56:07.204Z,38.9375
2022-10-09T10:58:07.224Z,38.02539
2022-10-09T11:00:07.327Z,37.71484
2022-10-09T11:02:07.288Z,39.11816
2022-10-09T11:04:07.224Z,38.0791
2022-10-09T11:06:39.290Z,39.23047
2022-10-09T11:08:39.288Z,39.06445
2022-10-09T11:10:39.374Z,38.15527
2022-10-09T11:12:49.237Z,38.45117
2022-10-09T11:14:39.317Z,38.61523
2022-10-09T11:16:39.436Z,38.07813
2022-10-09T11:18:39.310Z,38.38379
2022-10-09T11:20:39.328Z,38.95215
2022-10-09T11:21:58.066Z,38.31934
2022-10-09T11:23:58.078Z,39.25195
2022-10-09T11:25:58.115Z,39.17871
2022-10-09T11:27:58.080Z,37.5459
2022-10-09T11:29:58.087Z,39.26855
2022-10-09T11:31:58.196Z,38.48535
2022-10-09T11:33:58.123Z,38.72559
2022-10-09T11:37:18.526Z,38.48242
2022-10-09T11:39:18.553Z,38.37305
2022-10-09T11:41:18.501Z,37.96387
2022-10-09T11:43:18.439Z,38.16504
2022-10-09T11:45:18.464Z,36.84766
2022-10-09T11:47:18.501Z,37.30078
2022-10-09T11:49:18.456Z,37.38281
2022-10-09T11:53:02.441Z,36.8584
2022-10-09T11:55:02.452Z,37.68555
2022-10-09T11:57:06.649Z,38.47168
2022-10-09T11:59:02.437Z,37.70215
2022-10-09T12:01:02.591Z,37.16602
2022-10-09T12:03:02.520Z,36.39551
2022-10-09T12:05:02.578Z,36.68359
2022-10-09T12:09:36.992Z,37.12695
2022-10-09T12:11:37.011Z,36.38965
2022-10-09T12:13:37.048Z,36.87207
2022-10-09T12:15:37.008Z,37.17285
2022-10-09T12:17:37.057Z,37.79004
2022-10-09T12:19:36.964Z,37.33105
2022-10-09T12:22:31.878Z,37.94043
2022-10-09T12:24:31.912Z,37.47559
2022-10-09T12:26:31.884Z,36.57813
2022-10-09T12:28:31.974Z,36.43262
2022-10-09T12:30:32.014Z,37.00488
2022-10-09T12:32:31.833Z,38.40723
2022-10-09T12:34:31.886Z,37.02539
2022-10-09T12:36:31.807Z,37.13477
2022-10-09T12:38:03.309Z,37.21582
2022-10-09T12:40:03.270Z,36.22168
2022-10-09T12:42:03.263Z,36.42578
2022-10-09T12:44:03.264Z,36.15625
2022-10-09T12:46:03.542Z,36.62988
2022-10-09T12:48:03.241Z,35.10156
2022-10-09T12:50:03.278Z,34.34473
2022-10-09T12:53:14.584Z,35.48438
2022-10-09T12:55:14.687Z,34.9834
2022-10-09T12:57:14.541Z,34.24121
2022-10-09T12:59:14.554Z,34.02148
2022-10-09T13:01:14.880Z,34.61035
2022-10-09T13:03:14.543Z,33.44629
2022-10-09T13:05:14.546Z,33.7959
2022-10-09T13:07:54.933Z,33.81055
2022-10-09T13:09:55.039Z,33.97266
2022-10-09T13:11:54.903Z,34.55469
2022-10-09T13:13:54.937Z,33.09961
2022-10-09T13:15:54.912Z,33.43652
2022-10-09T13:17:55.001Z,34.08789
2022-10-09T13:19:54.879Z,34.01172
2022-10-09T13:21:54.933Z,34.42578
2022-10-09T13:23:55.575Z,35.07324
2022-10-09T13:26:02.578Z,35.37109
2022-10-09T13:27:55.466Z,35.84668
2022-10-09T13:29:55.393Z,36.20117
2022-10-09T13:31:55.500Z,35.66309
2022-10-09T13:33:55.479Z,36.02441
2022-10-09T13:35:55.381Z,36.14063
2022-10-09T13:39:10.423Z,36.04688
2022-10-09T13:41:10.474Z,36.27734
2022-10-09T13:43:10.429Z,36.46387
2022-10-09T13:45:10.459Z,37.25391
2022-10-09T13:47:10.642Z,36.91602
2022-10-09T13:49:10.497Z,36.88281
2022-10-09T13:51:10.470Z,36.79199
2022-10-09T13:53:56.792Z,37.55566
2022-10-09T13:56:01.411Z,37.63672
2022-10-09T13:57:57.081Z,38.25293
2022-10-09T13:59:56.846Z,38.38086
2022-10-09T14:01:56.975Z,37.96582
2022-10-09T14:03:56.810Z,38.48438
2022-10-09T14:05:56.880Z,38.43945
2022-10-09T14:08:54.117Z,38.9873
2022-10-09T14:10:54.092Z,39.0166
2022-10-09T14:12:54.033Z,38.97754
2022-10-09T14:14:54.084Z,39.38477
2022-10-09T14:16:54.009Z,39.58105
2022-10-09T14:18:54.067Z,39.63086
2022-10-09T14:20:54.047Z,39.22949
2022-10-09T14:23:43.651Z,39.71289
2022-10-09T14:25:43.675Z,39.97559
2022-10-09T14:27:44.442Z,40.37598
2022-10-09T14:29:43.806Z,40.35938
2022-10-09T14:31:43.815Z,40.71289
2022-10-09T14:33:43.850Z,40.33496
2022-10-09T14:35:43.829Z,40.41797
2022-10-09T14:37:43.688Z,41.2168
2022-10-09T14:39:20.288Z,41.31543
2022-10-09T14:41:20.287Z,41.49121
2022-10-09T14:43:20.313Z,42.09863
2022-10-09T14:45:20.291Z,41.66406
2022-10-09T14:47:20.318Z,42.0918
2022-10-09T14:49:20.269Z,41.93848
2022-10-09T14:51:20.384Z,41.80078
2022-10-09T14:54:39.605Z,42.1416
2022-10-09T14:56:39.402Z,42.11035
2022-10-09T14:58:39.397Z,42.18066
2022-10-09T15:00:39.454Z,42.75586
2022-10-09T15:02:39.525Z,42.84668
2022-10-09T15:04:39.435Z,43.30957
2022-10-09T15:06:39.388Z,44.15527
2022-10-09T15:09:23.865Z,44.49805
2022-10-09T15:11:24.214Z,45.55273
2022-10-09T15:13:23.860Z,45.33203
2022-10-09T15:15:23.883Z,45.71973
2022-10-09T15:17:23.974Z,45.92285
2022-10-09T15:19:23.914Z,45.94727
2022-10-09T15:21:23.958Z,46.08008
2022-10-09T15:25:05.438Z,47.13477
2022-10-09T15:27:05.459Z,47.3623
2022-10-09T15:29:05.451Z,47.57813
2022-10-09T15:31:05.442Z,47.92969
2022-10-09T15:33:05.466Z,47.80566
2022-10-09T15:35:05.494Z,47.97949
2022-10-09T15:37:05.461Z,48.06934
2022-10-09T15:40:14.058Z,48.25293
2022-10-09T15:42:14.287Z,48.27441
2022-10-09T15:44:14.073Z,48.57813
2022-10-09T15:46:14.091Z,48.80664
2022-10-09T15:48:14.062Z,49.15918
2022-10-09T15:50:14.193Z,49.22559
2022-10-09T15:52:14.081Z,49.33496
2022-10-09T15:55:18.689Z,49.73828
2022-10-09T15:57:18.670Z,49.96289
2022-10-09T15:59:18.625Z,50.0957
2022-10-09T16:01:18.792Z,50.25488
2022-10-09T16:03:18.640Z,50.7207
2022-10-09T16:05:18.693Z,50.9375
2022-10-09T16:07:18.601Z,51.13477
2022-10-09T16:10:22.430Z,51.84082
2022-10-09T16:12:22.446Z,52.42285
2022-10-09T16:14:22.368Z,52.59375
2022-10-09T16:16:22.396Z,52.55371
2022-10-09T16:18:22.377Z,52.50488
2022-10-09T16:20:22.488Z,52.66016
2022-10-09T16:22:22.702Z,52.62402
2022-10-09T16:25:20.472Z,53.65332
2022-10-09T16:27:20.392Z,53.71191
2022-10-09T16:29:20.448Z,54.11914
2022-10-09T16:31:20.482Z,53.95508
2022-10-09T16:33:21.241Z,53.82617
2022-10-09T16:35:20.449Z,54.12207
2022-10-09T16:37:20.419Z,54.21289
2022-10-09T16:41:03.685Z,54.72656
2022-10-09T16:42:54.494Z,54.94531
2022-10-09T16:44:54.567Z,54.9834
2022-10-09T16:46:55.686Z,55.1123
2022-10-09T16:48:54.525Z,55.43262
2022-10-09T16:50:54.530Z,55.42871
2022-10-09T16:52:56.866Z,55.58984
2022-10-09T16:55:50.865Z,55.48535
2022-10-09T16:57:51.436Z,55.83203
2022-10-09T16:59:50.829Z,56.47266
2022-10-09T17:01:50.883Z,56.2627
2022-10-09T17:03:50.815Z,56.28027
2022-10-09T17:05:50.797Z,56.2627
2022-10-09T17:07:51.551Z,56.1377
2022-10-09T17:10:41.535Z,56.37695
2022-10-09T17:12:41.487Z,56.67285
2022-10-09T17:14:41.535Z,57.09863
2022-10-09T17:16:41.478Z,57.31348
2022-10-09T17:18:41.496Z,57.4248
2022-10-09T17:20:41.519Z,57.49902
2022-10-09T17:22:41.497Z,57.37402
2022-10-09T17:25:44.489Z,57.57617
2022-10-09T17:27:44.442Z,57.84082
2022-10-09T17:29:44.446Z,57.71094
2022-10-09T17:31:44.471Z,58.00488
2022-10-09T17:33:44.459Z,58.33105
2022-10-09T17:35:44.434Z,58.40723
2022-10-09T17:37:44.476Z,58.80371
2022-10-09T17:39:52.176Z,58.74023
2022-10-09T17:41:08.799Z,58.94141
2022-10-09T17:43:08.754Z,58.79688
2022-10-09T17:45:08.983Z,58.70996
2022-10-09T17:47:08.786Z,58.9248
2022-10-09T17:49:08.751Z,58.7334
2022-10-09T17:51:08.764Z,59.19043
2022-10-09T17:53:08.706Z,59.14648
2022-10-09T17:56:58.733Z,59.22852
2022-10-09T17:58:58.664Z,59.02344
2022-10-09T18:00:58.829Z,58.91211
2022-10-09T18:02:58.657Z,58.71582
2022-10-09T18:04:58.680Z,58.92383
2022-10-09T18:06:58.655Z,59.19336
2022-10-09T18:08:58.636Z,59.55664
2022-10-09T18:12:10.383Z,59.4668
2022-10-09T18:14:10.266Z,59.56445
2022-10-09T18:16:10.267Z,59.24121
2022-10-09T18:18:10.271Z,59.71973
2022-10-09T18:20:10.308Z,59.86816
2022-10-09T18:22:10.336Z,60.22461
2022-10-09T18:24:10.292Z,60.45898
2022-10-09T18:26:35.215Z,60.28613
2022-10-09T18:28:35.362Z,60.42969
2022-10-09T18:30:35.237Z,60.80566
2022-10-09T18:32:35.234Z,60.69141
2022-10-09T18:34:40.181Z,60.875
2022-10-09T18:36:35.339Z,61.29883
2022-10-09T18:38:35.273Z,60.99609
2022-10-09T18:42:22.134Z,60.89941
2022-10-09T18:44:22.170Z,61.08398
2022-10-09T18:46:22.159Z,60.89941
2022-10-09T18:48:22.116Z,61.03516
2022-10-09T18:50:22.129Z,61.13281
2022-10-09T18:52:22.138Z,61.20313
2022-10-09T18:54:22.150Z,61.125
2022-10-09T18:56:51.546Z,61.42285
2022-10-09T18:58:51.539Z,61.5293
2022-10-09T19:00:51.692Z,61.57031
2022-10-09T19:02:51.532Z,61.87402
2022-10-09T19:04:51.572Z,62.4209
2022-10-09T19:06:51.541Z,62.00684
2022-10-09T19:08:51.557Z,62.1543
2022-10-09T19:10:51.566Z,62.25879
2022-10-09T19:12:04.881Z,62.09375
2022-10-09T19:14:04.848Z,61.81348
2022-10-09T19:16:04.872Z,61.87988
2022-10-09T19:18:04.827Z,62.49512
2022-10-09T19:20:04.828Z,62.44336
2022-10-09T19:22:04.819Z,62.69922
2022-10-09T19:24:04.841Z,62.87891
2022-10-09T19:27:26.968Z,62.97656
2022-10-09T19:29:26.398Z,62.70215
2022-10-09T19:31:26.457Z,62.55762
2022-10-09T19:33:26.381Z,62.4043
2022-10-09T19:35:26.369Z,62.48828
2022-10-09T19:37:30.115Z,62.56836
2022-10-09T19:39:26.418Z,62.71484
2022-10-09T19:42:52.793Z,62.89258
2022-10-09T19:44:52.794Z,62.46777
2022-10-09T19:46:52.857Z,62.81738
2022-10-09T19:48:52.797Z,62.4707
2022-10-09T19:50:52.791Z,62.15625
2022-10-09T19:52:52.799Z,62.42285
2022-10-09T19:54:52.813Z,62.66992
2022-10-09T19:57:36.962Z,63.18359
2022-10-09T19:59:37.017Z,62.88281
2022-10-09T20:01:37.130Z,62.89453
2022-10-09T20:03:36.984Z,62.87305
2022-10-09T20:05:37.066Z,62.61328
2022-10-09T20:07:36.994Z,62.37793
2022-10-09T20:09:36.962Z,62.80957
2022-10-09T20:12:41.045Z,63.2832
2022-10-09T20:14:41.039Z,62.7998
2022-10-09T20:16:41.043Z,62.78516
2022-10-09T20:18:41.007Z,63.02832
2022-10-09T20:20:41.028Z,63.01367
2022-10-09T20:22:40.984Z,63.90625
2022-10-09T20:24:40.996Z,63.95508
2022-10-09T20:26:43.487Z,64.00195
2022-10-09T20:28:23.497Z,63.86719
2022-10-09T20:30:23.382Z,63.92969
2022-10-09T20:32:23.370Z,63.87891
2022-10-09T20:34:23.437Z,63.74902
2022-10-09T20:36:23.384Z,63.98047
2022-10-09T20:38:26.149Z,63.69824
2022-10-09T20:40:23.396Z,63.97852
2022-10-09T20:43:31.135Z,63.95215
2022-10-09T20:45:31.090Z,63.53516
2022-10-09T20:47:31.114Z,63.86719
2022-10-09T20:49:31.110Z,63.60645
2022-10-09T20:51:31.078Z,63.90723
2022-10-09T20:53:31.088Z,63.92773
2022-10-09T20:55:31.098Z,64.26172
2022-10-09T20:59:01.756Z,64.03613
2022-10-09T21:01:01.832Z,64.02344
2022-10-09T21:03:01.729Z,63.89453
2022-10-09T21:05:01.778Z,63.4375
2022-10-09T21:07:01.732Z,63.94824
2022-10-09T21:09:02.733Z,63.90137
2022-10-09T21:11:01.723Z,63.93262
2022-10-09T21:13:18.361Z,63.96289
2022-10-09T21:15:18.384Z,63.70996
2022-10-09T21:17:18.364Z,63.91504
2022-10-09T21:19:18.366Z,64.16504
2022-10-09T21:21:18.397Z,64.60938
2022-10-09T21:23:18.392Z,64.67871
2022-10-09T21:25:18.343Z,64.57031
2022-10-09T21:27:18.331Z,64.96094
2022-10-09T21:29:00.042Z,64.68359
2022-10-09T21:30:54.405Z,64.36426
2022-10-09T21:32:54.289Z,64.37891
2022-10-09T21:34:54.319Z,64.37012
2022-10-09T21:38:54.282Z,64.52539
2022-10-09T21:40:54.294Z,64.97363
2022-10-09T21:43:56.235Z,64.98047
2022-10-09T21:45:56.207Z,65.18555
2022-10-09T21:47:56.263Z,65.20508
2022-10-09T21:49:56.184Z,65.36816
2022-10-09T21:51:56.323Z,65.46875
2022-10-09T21:53:56.262Z,65.27832
2022-10-09T21:55:56.228Z,66.01855
2022-10-09T21:59:24.080Z,66.09668
2022-10-09T22:01:24.162Z,65.75586
2022-10-09T22:03:24.080Z,65.9209
2022-10-09T22:05:24.011Z,65.99902
2022-10-09T22:07:24.106Z,65.93066
2022-10-09T22:09:24.024Z,65.76465
2022-10-09T22:11:24.022Z,65.94336
2022-10-09T22:14:18.677Z,66.01563
2022-10-09T22:16:18.627Z,65.88672
2022-10-09T22:18:18.641Z,65.81152
2022-10-09T22:20:18.694Z,66.13867
2022-10-09T22:22:18.617Z,65.83203
2022-10-09T22:24:18.664Z,65.68945
2022-10-09T22:26:18.664Z,65.58984
2022-10-09T22:29:47.196Z,65.46582
2022-10-09T22:31:47.191Z,65.46094
2022-10-09T22:33:47.202Z,65.91895
2022-10-09T22:35:47.172Z,65.62109
2022-10-09T22:37:47.167Z,65.41504
2022-10-09T22:39:47.184Z,65.42383
2022-10-09T22:41:47.200Z,65.70508
2022-10-09T22:44:59.149Z,65.65918
2022-10-09T22:46:59.171Z,65.3584
2022-10-09T22:48:59.304Z,65.39258
2022-10-09T22:50:59.176Z,65.19531
2022-10-09T22:52:59.161Z,65.2373
2022-10-09T22:54:59.187Z,65.54395
2022-10-09T22:56:59.195Z,65.49609
2022-10-09T23:00:29.915Z,65.88281
2022-10-09T23:02:29.923Z,65.91699
2022-10-09T23:04:29.889Z,66.06445
2022-10-09T23:06:29.959Z,66.02539
2022-10-09T23:08:29.922Z,65.57813
2022-10-09T23:10:29.892Z,65.89941
2022-10-09T23:12:29.899Z,65.83203
2022-10-09T23:14:56.686Z,65.92578
2022-10-09T23:16:56.670Z,65.70801
2022-10-09T23:18:59.065Z,65.45215
2022-10-09T23:20:56.660Z,65.3877
2022-10-09T23:22:56.735Z,65.45703
2022-10-09T23:24:56.666Z,65.62891
2022-10-09T23:26:56.842Z,65.78711
2022-10-09T23:30:37.620Z,65.5498
2022-10-09T23:32:37.646Z,65.63477
2022-10-09T23:34:37.611Z,66.15723
2022-10-09T23:36:37.676Z,65.80762
2022-10-09T23:38:37.823Z,65.59961
2022-10-09T23:40:37.614Z,65.83203
2022-10-09T23:42:37.654Z,66.34961
2022-10-09T23:44:59.163Z,65.82617
2022-10-09T23:46:59.134Z,66.68359
2022-10-09T23:48:59.140Z,67.87891
2022-10-09T23:50:59.162Z,67.46191
2022-10-09T23:52:59.166Z,67.01367
2022-10-09T23:54:59.169Z,66.49902
2022-10-09T23:56:59.165Z,66.63379
2022-10-09T23:58:59.149Z,66.72852
